sensor_id;sensor_type;location;lat;lon;timestamp;temperature;humidity
18729;DHT22;9493;51.884;5.188;2022-08-05T00:00:13;20.50;99.90
18729;DHT22;9493;51.884;5.188;2022-08-05T00:02:40;20.50;99.90
18729;DHT22;9493;51.884;5.188;2022-08-05T00:05:07;20.50;99.90
18729;DHT22;9493;51.884;5.188;2022-08-05T00:07:36;20.50;99.90
18729;DHT22;9493;51.884;5.188;2022-08-05T00:10:03;20.40;99.90
18729;DHT22;9493;51.884;5.188;2022-08-05T00:12:30;20.40;99.90
18729;DHT22;9493;51.884;5.188;2022-08-05T00:14:57;20.40;99.90
18729;DHT22;9493;51.884;5.188;2022-08-05T00:17:24;20.40;99.90
18729;DHT22;9493;51.884;5.188;2022-08-05T00:19:51;20.40;99.90
18729;DHT22;9493;51.884;5.188;2022-08-05T00:22:17;20.30;99.90
18729;DHT22;9493;51.884;5.188;2022-08-05T00:24:46;20.40;99.90
18729;DHT22;9493;51.884;5.188;2022-08-05T00:27:12;20.30;99.90
18729;DHT22;9493;51.884;5.188;2022-08-05T00:29:39;20.20;99.90
18729;DHT22;9493;51.884;5.188;2022-08-05T00:32:07;20.20;99.90
18729;DHT22;9493;51.884;5.188;2022-08-05T00:34:37;20.20;99.90
18729;DHT22;9493;51.884;5.188;2022-08-05T00:37:04;20.20;99.90
18729;DHT22;9493;51.884;5.188;2022-08-05T00:39:31;20.00;99.90
18729;DHT22;9493;51.884;5.188;2022-08-05T00:41:59;20.00;99.90
18729;DHT22;9493;51.884;5.188;2022-08-05T00:44:26;20.10;99.90
18729;DHT22;9493;51.884;5.188;2022-08-05T00:46:53;20.00;99.90
18729;DHT22;9493;51.884;5.188;2022-08-05T00:49:20;20.00;99.90
18729;DHT22;9493;51.884;5.188;2022-08-05T00:51:47;20.00;99.90
18729;DHT22;9493;51.884;5.188;2022-08-05T00:54:14;20.00;99.90
18729;DHT22;9493;51.884;5.188;2022-08-05T00:56:40;20.20;99.90
18729;DHT22;9493;51.884;5.188;2022-08-05T00:59:08;20.00;99.90
18729;DHT22;9493;51.884;5.188;2022-08-05T01:01:35;20.00;99.90
18729;DHT22;9493;51.884;5.188;2022-08-05T01:04:02;20.10;99.90
18729;DHT22;9493;51.884;5.188;2022-08-05T01:06:29;20.00;99.90
18729;DHT22;9493;51.884;5.188;2022-08-05T01:08:56;20.00;99.90
18729;DHT22;9493;51.884;5.188;2022-08-05T01:11:27;19.90;99.90
18729;DHT22;9493;51.884;5.188;2022-08-05T01:14:02;19.90;99.90
18729;DHT22;9493;51.884;5.188;2022-08-05T01:16:35;20.00;99.90
18729;DHT22;9493;51.884;5.188;2022-08-05T01:19:10;19.90;99.90
18729;DHT22;9493;51.884;5.188;2022-08-05T01:22:10;19.90;99.90
18729;DHT22;9493;51.884;5.188;2022-08-05T01:25:00;19.90;99.90
18729;DHT22;9493;51.884;5.188;2022-08-05T01:27:42;19.90;99.90
18729;DHT22;9493;51.884;5.188;2022-08-05T01:30:12;19.90;99.90
18729;DHT22;9493;51.884;5.188;2022-08-05T01:32:40;19.90;99.90
18729;DHT22;9493;51.884;5.188;2022-08-05T01:35:12;19.90;99.90
18729;DHT22;9493;51.884;5.188;2022-08-05T01:37:44;19.90;99.90
18729;DHT22;9493;51.884;5.188;2022-08-05T01:40:13;19.80;99.90
18729;DHT22;9493;51.884;5.188;2022-08-05T01:42:43;19.80;99.90
18729;DHT22;9493;51.884;5.188;2022-08-05T01:45:12;19.80;99.90
18729;DHT22;9493;51.884;5.188;2022-08-05T01:47:41;19.70;99.90
18729;DHT22;9493;51.884;5.188;2022-08-05T01:50:13;19.80;99.90
18729;DHT22;9493;51.884;5.188;2022-08-05T01:52:42;19.80;99.90
18729;DHT22;9493;51.884;5.188;2022-08-05T01:55:11;19.70;99.90
18729;DHT22;9493;51.884;5.188;2022-08-05T01:57:42;19.70;99.90
18729;DHT22;9493;51.884;5.188;2022-08-05T02:00:11;19.70;99.90
18729;DHT22;9493;51.884;5.188;2022-08-05T02:02:42;19.70;99.90
18729;DHT22;9493;51.884;5.188;2022-08-05T02:05:11;19.70;99.90
18729;DHT22;9493;51.884;5.188;2022-08-05T02:07:39;19.70;99.90
18729;DHT22;9493;51.884;5.188;2022-08-05T02:10:08;19.70;99.90
18729;DHT22;9493;51.884;5.188;2022-08-05T02:12:40;19.60;99.90
18729;DHT22;9493;51.884;5.188;2022-08-05T02:15:12;19.60;99.90
18729;DHT22;9493;51.884;5.188;2022-08-05T02:17:44;19.60;99.90
18729;DHT22;9493;51.884;5.188;2022-08-05T02:20:17;19.60;99.90
18729;DHT22;9493;51.884;5.188;2022-08-05T02:22:49;19.50;99.90
18729;DHT22;9493;51.884;5.188;2022-08-05T02:25:24;19.50;99.90
18729;DHT22;9493;51.884;5.188;2022-08-05T02:27:53;19.50;99.90
18729;DHT22;9493;51.884;5.188;2022-08-05T02:30:24;19.50;99.90
18729;DHT22;9493;51.884;5.188;2022-08-05T02:32:54;19.50;99.90
18729;DHT22;9493;51.884;5.188;2022-08-05T02:35:23;19.40;99.90
18729;DHT22;9493;51.884;5.188;2022-08-05T02:37:52;19.40;99.90
18729;DHT22;9493;51.884;5.188;2022-08-05T02:40:20;19.40;99.90
18729;DHT22;9493;51.884;5.188;2022-08-05T02:42:49;19.40;99.90
18729;DHT22;9493;51.884;5.188;2022-08-05T02:45:17;19.40;99.90
18729;DHT22;9493;51.884;5.188;2022-08-05T02:47:47;19.40;99.90
18729;DHT22;9493;51.884;5.188;2022-08-05T02:50:15;19.30;99.90
18729;DHT22;9493;51.884;5.188;2022-08-05T02:52:44;19.30;99.90
18729;DHT22;9493;51.884;5.188;2022-08-05T02:55:12;19.40;99.90
18729;DHT22;9493;51.884;5.188;2022-08-05T02:57:40;19.30;99.90
18729;DHT22;9493;51.884;5.188;2022-08-05T03:00:09;19.30;99.90
18729;DHT22;9493;51.884;5.188;2022-08-05T03:02:39;19.30;99.90
18729;DHT22;9493;51.884;5.188;2022-08-05T03:05:10;19.20;99.90
18729;DHT22;9493;51.884;5.188;2022-08-05T03:07:38;19.20;99.90
18729;DHT22;9493;51.884;5.188;2022-08-05T03:10:08;19.30;99.90
18729;DHT22;9493;51.884;5.188;2022-08-05T03:12:36;19.30;99.90
18729;DHT22;9493;51.884;5.188;2022-08-05T03:15:04;19.30;99.90
18729;DHT22;9493;51.884;5.188;2022-08-05T03:17:31;19.30;99.90
18729;DHT22;9493;51.884;5.188;2022-08-05T03:19:58;19.30;99.90
18729;DHT22;9493;51.884;5.188;2022-08-05T03:22:27;19.20;99.90
18729;DHT22;9493;51.884;5.188;2022-08-05T03:24:54;19.20;99.90
18729;DHT22;9493;51.884;5.188;2022-08-05T03:27:22;19.20;99.90
18729;DHT22;9493;51.884;5.188;2022-08-05T03:29:50;19.20;99.90
18729;DHT22;9493;51.884;5.188;2022-08-05T03:32:17;19.10;99.90
18729;DHT22;9493;51.884;5.188;2022-08-05T03:34:45;19.20;99.90
18729;DHT22;9493;51.884;5.188;2022-08-05T03:37:12;19.10;99.90
18729;DHT22;9493;51.884;5.188;2022-08-05T03:39:53;19.10;99.90
18729;DHT22;9493;51.884;5.188;2022-08-05T03:42:20;19.10;99.90
18729;DHT22;9493;51.884;5.188;2022-08-05T03:44:47;19.00;99.90
18729;DHT22;9493;51.884;5.188;2022-08-05T03:47:14;19.10;99.90
18729;DHT22;9493;51.884;5.188;2022-08-05T03:49:40;19.10;99.90
18729;DHT22;9493;51.884;5.188;2022-08-05T03:52:09;19.10;99.90
18729;DHT22;9493;51.884;5.188;2022-08-05T03:54:44;19.00;99.90
18729;DHT22;9493;51.884;5.188;2022-08-05T03:57:16;19.00;99.90
18729;DHT22;9493;51.884;5.188;2022-08-05T03:59:48;19.00;99.90
18729;DHT22;9493;51.884;5.188;2022-08-05T04:02:17;19.00;99.90
18729;DHT22;9493;51.884;5.188;2022-08-05T04:04:46;19.00;99.90
18729;DHT22;9493;51.884;5.188;2022-08-05T04:07:13;19.00;99.90
18729;DHT22;9493;51.884;5.188;2022-08-05T04:09:40;18.90;99.90
18729;DHT22;9493;51.884;5.188;2022-08-05T04:12:08;18.80;99.90
18729;DHT22;9493;51.884;5.188;2022-08-05T04:14:36;18.80;99.90
18729;DHT22;9493;51.884;5.188;2022-08-05T04:17:03;18.70;99.90
18729;DHT22;9493;51.884;5.188;2022-08-05T04:19:30;18.70;99.90
18729;DHT22;9493;51.884;5.188;2022-08-05T04:21:57;18.60;99.90
18729;DHT22;9493;51.884;5.188;2022-08-05T04:24:24;18.70;99.90
18729;DHT22;9493;51.884;5.188;2022-08-05T04:26:51;18.60;99.90
18729;DHT22;9493;51.884;5.188;2022-08-05T04:29:18;18.70;99.90
18729;DHT22;9493;51.884;5.188;2022-08-05T04:31:46;18.50;99.90
18729;DHT22;9493;51.884;5.188;2022-08-05T04:34:13;18.40;99.90
18729;DHT22;9493;51.884;5.188;2022-08-05T04:36:39;18.40;99.90
18729;DHT22;9493;51.884;5.188;2022-08-05T04:39:06;18.50;99.90
18729;DHT22;9493;51.884;5.188;2022-08-05T04:41:33;18.40;99.90
18729;DHT22;9493;51.884;5.188;2022-08-05T04:44:00;18.40;99.90
18729;DHT22;9493;51.884;5.188;2022-08-05T04:46:27;18.50;99.90
18729;DHT22;9493;51.884;5.188;2022-08-05T04:48:55;18.40;99.90
18729;DHT22;9493;51.884;5.188;2022-08-05T04:51:22;18.40;99.90
18729;DHT22;9493;51.884;5.188;2022-08-05T04:53:49;18.30;99.90
18729;DHT22;9493;51.884;5.188;2022-08-05T04:56:16;18.30;99.90
18729;DHT22;9493;51.884;5.188;2022-08-05T04:58:43;18.30;99.90
18729;DHT22;9493;51.884;5.188;2022-08-05T05:01:10;18.30;99.90
18729;DHT22;9493;51.884;5.188;2022-08-05T05:03:37;18.30;99.90
18729;DHT22;9493;51.884;5.188;2022-08-05T05:06:08;18.30;99.90
18729;DHT22;9493;51.884;5.188;2022-08-05T05:08:35;18.20;99.90
18729;DHT22;9493;51.884;5.188;2022-08-05T05:11:02;18.20;99.90
18729;DHT22;9493;51.884;5.188;2022-08-05T05:13:30;18.10;99.90
18729;DHT22;9493;51.884;5.188;2022-08-05T05:15:57;18.20;99.90
18729;DHT22;9493;51.884;5.188;2022-08-05T05:18:24;18.10;99.90
18729;DHT22;9493;51.884;5.188;2022-08-05T05:20:50;18.20;99.90
18729;DHT22;9493;51.884;5.188;2022-08-05T05:23:19;18.10;99.90
18729;DHT22;9493;51.884;5.188;2022-08-05T05:25:46;18.10;99.90
18729;DHT22;9493;51.884;5.188;2022-08-05T05:28:12;18.10;99.90
18729;DHT22;9493;51.884;5.188;2022-08-05T05:30:39;18.20;99.90
18729;DHT22;9493;51.884;5.188;2022-08-05T05:33:07;18.20;99.90
18729;DHT22;9493;51.884;5.188;2022-08-05T05:35:35;18.20;99.90
18729;DHT22;9493;51.884;5.188;2022-08-05T05:38:03;18.20;99.90
18729;DHT22;9493;51.884;5.188;2022-08-05T05:40:33;18.10;99.90
18729;DHT22;9493;51.884;5.188;2022-08-05T05:43:00;18.10;99.90
18729;DHT22;9493;51.884;5.188;2022-08-05T05:45:27;18.10;99.90
18729;DHT22;9493;51.884;5.188;2022-08-05T05:47:54;18.30;99.90
18729;DHT22;9493;51.884;5.188;2022-08-05T05:50:23;18.70;99.90
18729;DHT22;9493;51.884;5.188;2022-08-05T05:52:50;18.60;99.90
18729;DHT22;9493;51.884;5.188;2022-08-05T05:55:19;18.60;99.90
18729;DHT22;9493;51.884;5.188;2022-08-05T05:57:47;18.70;99.90
18729;DHT22;9493;51.884;5.188;2022-08-05T06:00:30;18.90;99.90
18729;DHT22;9493;51.884;5.188;2022-08-05T06:03:13;19.00;99.90
18729;DHT22;9493;51.884;5.188;2022-08-05T06:05:41;19.00;99.90
18729;DHT22;9493;51.884;5.188;2022-08-05T06:08:10;19.20;99.90
18729;DHT22;9493;51.884;5.188;2022-08-05T06:10:38;19.20;99.90
18729;DHT22;9493;51.884;5.188;2022-08-05T06:13:08;19.40;99.90
18729;DHT22;9493;51.884;5.188;2022-08-05T06:15:35;19.50;99.90
18729;DHT22;9493;51.884;5.188;2022-08-05T06:18:04;19.90;99.90
18729;DHT22;9493;51.884;5.188;2022-08-05T06:20:31;19.60;99.90
18729;DHT22;9493;51.884;5.188;2022-08-05T06:22:58;19.60;99.90
18729;DHT22;9493;51.884;5.188;2022-08-05T06:25:25;19.70;99.90
18729;DHT22;9493;51.884;5.188;2022-08-05T06:27:52;19.80;99.90
18729;DHT22;9493;51.884;5.188;2022-08-05T06:30:42;19.90;99.90
18729;DHT22;9493;51.884;5.188;2022-08-05T06:33:09;19.90;99.90
18729;DHT22;9493;51.884;5.188;2022-08-05T06:35:36;19.90;99.90
18729;DHT22;9493;51.884;5.188;2022-08-05T06:38:03;19.80;99.90
18729;DHT22;9493;51.884;5.188;2022-08-05T06:40:30;19.80;99.90
18729;DHT22;9493;51.884;5.188;2022-08-05T06:42:57;19.80;99.90
18729;DHT22;9493;51.884;5.188;2022-08-05T06:45:24;19.80;99.90
18729;DHT22;9493;51.884;5.188;2022-08-05T06:47:52;19.80;99.90
18729;DHT22;9493;51.884;5.188;2022-08-05T06:50:19;19.80;99.90
18729;DHT22;9493;51.884;5.188;2022-08-05T06:52:46;20.00;99.90
18729;DHT22;9493;51.884;5.188;2022-08-05T06:55:12;19.90;99.90
18729;DHT22;9493;51.884;5.188;2022-08-05T06:57:39;20.10;99.90
18729;DHT22;9493;51.884;5.188;2022-08-05T07:00:07;20.20;99.90
18729;DHT22;9493;51.884;5.188;2022-08-05T07:02:40;20.20;99.90
18729;DHT22;9493;51.884;5.188;2022-08-05T07:05:10;20.20;99.90
18729;DHT22;9493;51.884;5.188;2022-08-05T07:07:37;20.40;99.90
18729;DHT22;9493;51.884;5.188;2022-08-05T07:10:05;20.30;99.90
18729;DHT22;9493;51.884;5.188;2022-08-05T07:12:32;20.40;99.90
18729;DHT22;9493;51.884;5.188;2022-08-05T07:15:13;20.50;99.90
18729;DHT22;9493;51.884;5.188;2022-08-05T07:17:57;20.40;99.90
18729;DHT22;9493;51.884;5.188;2022-08-05T07:20:25;20.30;99.90
18729;DHT22;9493;51.884;5.188;2022-08-05T07:22:52;20.20;99.90
18729;DHT22;9493;51.884;5.188;2022-08-05T07:25:19;20.40;99.90
18729;DHT22;9493;51.884;5.188;2022-08-05T07:27:46;20.30;99.90
18729;DHT22;9493;51.884;5.188;2022-08-05T07:30:13;20.30;99.90
18729;DHT22;9493;51.884;5.188;2022-08-05T07:32:40;20.30;99.90
18729;DHT22;9493;51.884;5.188;2022-08-05T07:35:07;20.40;99.90
18729;DHT22;9493;51.884;5.188;2022-08-05T07:37:35;20.50;99.90
18729;DHT22;9493;51.884;5.188;2022-08-05T07:40:03;20.80;99.90
18729;DHT22;9493;51.884;5.188;2022-08-05T07:42:30;20.90;99.90
18729;DHT22;9493;51.884;5.188;2022-08-05T07:44:57;21.10;99.90
18729;DHT22;9493;51.884;5.188;2022-08-05T07:47:24;21.50;99.90
18729;DHT22;9493;51.884;5.188;2022-08-05T07:49:51;21.30;99.90
18729;DHT22;9493;51.884;5.188;2022-08-05T07:52:17;21.20;99.90
18729;DHT22;9493;51.884;5.188;2022-08-05T07:54:46;21.50;99.90
18729;DHT22;9493;51.884;5.188;2022-08-05T07:57:13;21.80;99.90
18729;DHT22;9493;51.884;5.188;2022-08-05T07:59:40;21.90;99.90
18729;DHT22;9493;51.884;5.188;2022-08-05T08:02:08;21.90;99.90
18729;DHT22;9493;51.884;5.188;2022-08-05T08:04:35;22.10;99.90
18729;DHT22;9493;51.884;5.188;2022-08-05T08:07:02;22.40;99.90
18729;DHT22;9493;51.884;5.188;2022-08-05T08:09:28;22.80;99.90
18729;DHT22;9493;51.884;5.188;2022-08-05T08:11:57;23.00;99.90
18729;DHT22;9493;51.884;5.188;2022-08-05T08:14:24;22.90;99.90
18729;DHT22;9493;51.884;5.188;2022-08-05T08:16:51;22.80;99.90
18729;DHT22;9493;51.884;5.188;2022-08-05T08:19:17;22.60;99.90
18729;DHT22;9493;51.884;5.188;2022-08-05T08:21:44;23.10;99.90
18729;DHT22;9493;51.884;5.188;2022-08-05T08:24:11;23.20;99.90
18729;DHT22;9493;51.884;5.188;2022-08-05T08:26:38;23.20;99.90
18729;DHT22;9493;51.884;5.188;2022-08-05T08:29:06;23.40;99.90
18729;DHT22;9493;51.884;5.188;2022-08-05T08:31:33;23.50;99.90
18729;DHT22;9493;51.884;5.188;2022-08-05T08:34:00;23.60;99.90
18729;DHT22;9493;51.884;5.188;2022-08-05T08:36:27;23.90;99.90
18729;DHT22;9493;51.884;5.188;2022-08-05T08:38:54;24.00;99.90
18729;DHT22;9493;51.884;5.188;2022-08-05T08:41:21;23.70;99.90
18729;DHT22;9493;51.884;5.188;2022-08-05T08:43:49;23.30;99.90
18729;DHT22;9493;51.884;5.188;2022-08-05T08:46:20;23.40;99.90
18729;DHT22;9493;51.884;5.188;2022-08-05T08:48:49;23.50;99.90
18729;DHT22;9493;51.884;5.188;2022-08-05T08:51:19;23.60;99.90
18729;DHT22;9493;51.884;5.188;2022-08-05T08:53:47;23.30;99.90
18729;DHT22;9493;51.884;5.188;2022-08-05T08:56:15;23.30;99.90
18729;DHT22;9493;51.884;5.188;2022-08-05T08:58:43;23.60;99.90
18729;DHT22;9493;51.884;5.188;2022-08-05T09:01:11;23.70;99.90
18729;DHT22;9493;51.884;5.188;2022-08-05T09:03:39;23.80;99.90
18729;DHT22;9493;51.884;5.188;2022-08-05T09:06:06;24.50;99.90
18729;DHT22;9493;51.884;5.188;2022-08-05T09:08:33;24.70;99.90
18729;DHT22;9493;51.884;5.188;2022-08-05T09:11:00;24.60;99.90
18729;DHT22;9493;51.884;5.188;2022-08-05T09:13:27;24.00;99.90
18729;DHT22;9493;51.884;5.188;2022-08-05T09:15:54;24.20;99.90
18729;DHT22;9493;51.884;5.188;2022-08-05T09:18:21;24.40;99.90
18729;DHT22;9493;51.884;5.188;2022-08-05T09:20:50;24.80;99.90
18729;DHT22;9493;51.884;5.188;2022-08-05T09:23:18;25.20;99.90
18729;DHT22;9493;51.884;5.188;2022-08-05T09:25:46;25.50;99.90
18729;DHT22;9493;51.884;5.188;2022-08-05T09:28:17;25.90;99.90
18729;DHT22;9493;51.884;5.188;2022-08-05T09:30:51;26.30;99.90
18729;DHT22;9493;51.884;5.188;2022-08-05T09:33:20;25.60;99.90
18729;DHT22;9493;51.884;5.188;2022-08-05T09:36:00;25.70;99.90
18729;DHT22;9493;51.884;5.188;2022-08-05T09:38:28;25.80;99.90
18729;DHT22;9493;51.884;5.188;2022-08-05T09:41:02;25.20;99.90
18729;DHT22;9493;51.884;5.188;2022-08-05T09:43:31;25.40;99.90
18729;DHT22;9493;51.884;5.188;2022-08-05T09:45:58;25.30;99.90
18729;DHT22;9493;51.884;5.188;2022-08-05T09:48:26;25.00;99.90
18729;DHT22;9493;51.884;5.188;2022-08-05T09:50:55;24.60;99.90
18729;DHT22;9493;51.884;5.188;2022-08-05T09:53:25;24.40;99.90
18729;DHT22;9493;51.884;5.188;2022-08-05T09:55:54;24.90;99.90
18729;DHT22;9493;51.884;5.188;2022-08-05T09:58:22;25.30;99.90
18729;DHT22;9493;51.884;5.188;2022-08-05T10:00:54;25.10;99.90
18729;DHT22;9493;51.884;5.188;2022-08-05T10:03:21;24.70;99.90
18729;DHT22;9493;51.884;5.188;2022-08-05T10:06:04;24.70;99.90
18729;DHT22;9493;51.884;5.188;2022-08-05T10:08:34;24.60;99.90
18729;DHT22;9493;51.884;5.188;2022-08-05T10:11:03;24.40;99.90
18729;DHT22;9493;51.884;5.188;2022-08-05T10:13:32;24.30;99.90
18729;DHT22;9493;51.884;5.188;2022-08-05T10:16:02;23.80;99.90
18729;DHT22;9493;51.884;5.188;2022-08-05T10:18:29;24.00;99.90
18729;DHT22;9493;51.884;5.188;2022-08-05T10:20:59;24.20;99.90
18729;DHT22;9493;51.884;5.188;2022-08-05T10:23:28;24.20;99.90
18729;DHT22;9493;51.884;5.188;2022-08-05T10:25:58;23.90;99.90
18729;DHT22;9493;51.884;5.188;2022-08-05T10:28:25;24.40;99.90
18729;DHT22;9493;51.884;5.188;2022-08-05T10:30:53;24.60;99.90
18729;DHT22;9493;51.884;5.188;2022-08-05T10:33:21;24.40;99.90
18729;DHT22;9493;51.884;5.188;2022-08-05T10:35:49;23.90;99.90
18729;DHT22;9493;51.884;5.188;2022-08-05T10:38:18;24.00;99.90
18729;DHT22;9493;51.884;5.188;2022-08-05T10:40:53;23.80;99.90
18729;DHT22;9493;51.884;5.188;2022-08-05T10:43:36;23.50;99.90
18729;DHT22;9493;51.884;5.188;2022-08-05T10:46:07;23.20;99.90
18729;DHT22;9493;51.884;5.188;2022-08-05T10:48:36;23.30;99.90
18729;DHT22;9493;51.884;5.188;2022-08-05T10:51:06;23.20;99.90
18729;DHT22;9493;51.884;5.188;2022-08-05T10:53:44;23.40;99.90
18729;DHT22;9493;51.884;5.188;2022-08-05T10:56:19;23.20;99.90
18729;DHT22;9493;51.884;5.188;2022-08-05T10:59:00;23.40;99.90
18729;DHT22;9493;51.884;5.188;2022-08-05T11:01:30;23.10;99.90
18729;DHT22;9493;51.884;5.188;2022-08-05T11:04:06;23.20;99.90
18729;DHT22;9493;51.884;5.188;2022-08-05T11:07:03;23.60;99.90
18729;DHT22;9493;51.884;5.188;2022-08-05T11:09:23;23.60;99.90
18729;DHT22;9493;51.884;5.188;2022-08-05T11:11:51;23.50;99.90
18729;DHT22;9493;51.884;5.188;2022-08-05T11:14:24;23.30;99.90
18729;DHT22;9493;51.884;5.188;2022-08-05T11:17:30;23.40;99.90
18729;DHT22;9493;51.884;5.188;2022-08-05T11:20:00;23.30;99.90
18729;DHT22;9493;51.884;5.188;2022-08-05T11:22:43;23.30;99.90
18729;DHT22;9493;51.884;5.188;2022-08-05T11:25:31;23.40;99.90
18729;DHT22;9493;51.884;5.188;2022-08-05T11:28:42;23.00;99.90
18729;DHT22;9493;51.884;5.188;2022-08-05T11:31:30;22.60;99.90
18729;DHT22;9493;51.884;5.188;2022-08-05T11:33:59;23.10;99.90
18729;DHT22;9493;51.884;5.188;2022-08-05T11:36:47;23.00;99.90
18729;DHT22;9493;51.884;5.188;2022-08-05T11:42:01;22.80;99.90
18729;DHT22;9493;51.884;5.188;2022-08-05T11:44:36;23.20;99.90
18729;DHT22;9493;51.884;5.188;2022-08-05T11:47:05;23.00;99.90
18729;DHT22;9493;51.884;5.188;2022-08-05T11:49:32;23.00;99.90
18729;DHT22;9493;51.884;5.188;2022-08-05T11:51:59;23.00;99.90
18729;DHT22;9493;51.884;5.188;2022-08-05T11:54:28;23.30;99.90
18729;DHT22;9493;51.884;5.188;2022-08-05T11:56:57;23.70;99.90
18729;DHT22;9493;51.884;5.188;2022-08-05T11:59:26;24.70;99.90
18729;DHT22;9493;51.884;5.188;2022-08-05T12:01:55;24.80;99.90
18729;DHT22;9493;51.884;5.188;2022-08-05T12:04:24;24.80;99.90
18729;DHT22;9493;51.884;5.188;2022-08-05T12:06:52;25.10;99.90
18729;DHT22;9493;51.884;5.188;2022-08-05T12:09:23;25.30;99.90
18729;DHT22;9493;51.884;5.188;2022-08-05T12:11:51;24.90;99.90
18729;DHT22;9493;51.884;5.188;2022-08-05T12:14:21;24.50;99.90
18729;DHT22;9493;51.884;5.188;2022-08-05T12:16:49;24.60;99.90
18729;DHT22;9493;51.884;5.188;2022-08-05T12:19:16;24.80;99.90
18729;DHT22;9493;51.884;5.188;2022-08-05T12:21:48;24.60;99.90
18729;DHT22;9493;51.884;5.188;2022-08-05T12:24:16;24.80;99.90
18729;DHT22;9493;51.884;5.188;2022-08-05T12:26:47;25.50;99.80
18729;DHT22;9493;51.884;5.188;2022-08-05T12:29:15;25.80;99.80
18729;DHT22;9493;51.884;5.188;2022-08-05T12:31:47;25.80;99.80
18729;DHT22;9493;51.884;5.188;2022-08-05T12:34:15;25.40;99.70
18729;DHT22;9493;51.884;5.188;2022-08-05T12:36:43;25.40;99.50
18729;DHT22;9493;51.884;5.188;2022-08-05T12:39:12;25.80;99.20
18729;DHT22;9493;51.884;5.188;2022-08-05T12:41:40;26.40;98.70
18729;DHT22;9493;51.884;5.188;2022-08-05T12:44:09;26.70;97.90
18729;DHT22;9493;51.884;5.188;2022-08-05T12:46:37;26.00;97.60
18729;DHT22;9493;51.884;5.188;2022-08-05T12:49:06;25.70;97.70
18729;DHT22;9493;51.884;5.188;2022-08-05T12:51:46;25.30;98.00
18729;DHT22;9493;51.884;5.188;2022-08-05T12:54:22;25.10;98.30
18729;DHT22;9493;51.884;5.188;2022-08-05T12:56:50;24.90;98.90
18729;DHT22;9493;51.884;5.188;2022-08-05T12:59:19;25.40;99.30
18729;DHT22;9493;51.884;5.188;2022-08-05T13:01:54;25.80;99.50
18729;DHT22;9493;51.884;5.188;2022-08-05T13:04:25;25.80;99.70
18729;DHT22;9493;51.884;5.188;2022-08-05T13:06:54;25.90;99.70
18729;DHT22;9493;51.884;5.188;2022-08-05T13:09:24;26.00;99.70
18729;DHT22;9493;51.884;5.188;2022-08-05T13:12:00;26.20;99.70
18729;DHT22;9493;51.884;5.188;2022-08-05T13:14:27;26.50;99.70
18729;DHT22;9493;51.884;5.188;2022-08-05T13:16:55;26.50;99.70
18729;DHT22;9493;51.884;5.188;2022-08-05T13:19:24;26.70;99.80
18729;DHT22;9493;51.884;5.188;2022-08-05T13:21:52;26.90;99.80
18729;DHT22;9493;51.884;5.188;2022-08-05T13:24:21;26.40;99.30
18729;DHT22;9493;51.884;5.188;2022-08-05T13:26:50;26.10;98.90
18729;DHT22;9493;51.884;5.188;2022-08-05T13:29:18;26.70;98.80
18729;DHT22;9493;51.884;5.188;2022-08-05T13:31:45;26.30;98.50
18729;DHT22;9493;51.884;5.188;2022-08-05T13:34:12;25.30;98.60
18729;DHT22;9493;51.884;5.188;2022-08-05T13:36:40;25.50;98.70
18729;DHT22;9493;51.884;5.188;2022-08-05T13:39:07;26.00;99.10
18729;DHT22;9493;51.884;5.188;2022-08-05T13:41:36;25.80;99.40
18729;DHT22;9493;51.884;5.188;2022-08-05T13:44:05;25.70;99.60
18729;DHT22;9493;51.884;5.188;2022-08-05T13:46:32;24.80;99.90
18729;DHT22;9493;51.884;5.188;2022-08-05T13:49:00;25.00;99.90
18729;DHT22;9493;51.884;5.188;2022-08-05T13:51:29;24.70;99.90
18729;DHT22;9493;51.884;5.188;2022-08-05T13:54:00;24.70;99.90
18729;DHT22;9493;51.884;5.188;2022-08-05T13:56:27;24.60;99.90
18729;DHT22;9493;51.884;5.188;2022-08-05T13:58:53;25.00;99.90
18729;DHT22;9493;51.884;5.188;2022-08-05T14:01:22;25.20;99.70
18729;DHT22;9493;51.884;5.188;2022-08-05T14:03:49;25.80;99.40
18729;DHT22;9493;51.884;5.188;2022-08-05T14:06:29;26.20;98.80
18729;DHT22;9493;51.884;5.188;2022-08-05T14:08:58;26.10;98.30
18729;DHT22;9493;51.884;5.188;2022-08-05T14:11:25;26.30;97.80
18729;DHT22;9493;51.884;5.188;2022-08-05T14:13:54;26.10;97.30
18729;DHT22;9493;51.884;5.188;2022-08-05T14:16:23;26.00;97.00
18729;DHT22;9493;51.884;5.188;2022-08-05T14:18:50;26.20;96.70
18729;DHT22;9493;51.884;5.188;2022-08-05T14:21:17;26.30;96.50
18729;DHT22;9493;51.884;5.188;2022-08-05T14:23:44;25.80;96.40
18729;DHT22;9493;51.884;5.188;2022-08-05T14:26:10;24.80;96.40
18729;DHT22;9493;51.884;5.188;2022-08-05T14:28:37;24.70;96.60
18729;DHT22;9493;51.884;5.188;2022-08-05T14:31:04;24.90;97.00
18729;DHT22;9493;51.884;5.188;2022-08-05T14:33:33;23.80;97.60
18729;DHT22;9493;51.884;5.188;2022-08-05T14:36:00;23.90;98.30
18729;DHT22;9493;51.884;5.188;2022-08-05T14:38:27;24.50;98.60
18729;DHT22;9493;51.884;5.188;2022-08-05T14:40:54;24.60;98.90
18729;DHT22;9493;51.884;5.188;2022-08-05T14:43:21;24.80;99.00
18729;DHT22;9493;51.884;5.188;2022-08-05T14:45:48;25.10;99.30
18729;DHT22;9493;51.884;5.188;2022-08-05T14:48:14;25.60;99.20
18729;DHT22;9493;51.884;5.188;2022-08-05T14:50:43;25.80;99.00
18729;DHT22;9493;51.884;5.188;2022-08-05T14:53:10;25.20;98.90
18729;DHT22;9493;51.884;5.188;2022-08-05T14:55:38;24.10;99.00
18729;DHT22;9493;51.884;5.188;2022-08-05T14:58:04;23.70;99.20
18729;DHT22;9493;51.884;5.188;2022-08-05T15:00:31;24.30;99.30
18729;DHT22;9493;51.884;5.188;2022-08-05T15:02:58;24.20;99.40
18729;DHT22;9493;51.884;5.188;2022-08-05T15:05:25;24.40;99.60
18729;DHT22;9493;51.884;5.188;2022-08-05T15:07:54;24.70;99.80
18729;DHT22;9493;51.884;5.188;2022-08-05T15:10:20;24.90;99.90
18729;DHT22;9493;51.884;5.188;2022-08-05T15:12:47;24.90;99.90
18729;DHT22;9493;51.884;5.188;2022-08-05T15:15:15;24.90;99.90
18729;DHT22;9493;51.884;5.188;2022-08-05T15:17:41;25.20;99.90
18729;DHT22;9493;51.884;5.188;2022-08-05T15:20:10;24.70;99.90
18729;DHT22;9493;51.884;5.188;2022-08-05T15:22:37;24.80;99.90
18729;DHT22;9493;51.884;5.188;2022-08-05T15:25:07;24.30;99.90
18729;DHT22;9493;51.884;5.188;2022-08-05T15:27:34;24.20;99.90
18729;DHT22;9493;51.884;5.188;2022-08-05T15:30:01;24.10;99.90
18729;DHT22;9493;51.884;5.188;2022-08-05T15:32:28;24.20;99.90
18729;DHT22;9493;51.884;5.188;2022-08-05T15:34:56;24.30;99.90
18729;DHT22;9493;51.884;5.188;2022-08-05T15:37:23;24.40;99.90
18729;DHT22;9493;51.884;5.188;2022-08-05T15:39:50;23.90;99.90
18729;DHT22;9493;51.884;5.188;2022-08-05T15:42:18;23.50;99.90
18729;DHT22;9493;51.884;5.188;2022-08-05T15:44:45;24.10;99.90
18729;DHT22;9493;51.884;5.188;2022-08-05T15:47:12;24.40;99.90
18729;DHT22;9493;51.884;5.188;2022-08-05T15:49:38;24.10;99.90
18729;DHT22;9493;51.884;5.188;2022-08-05T15:52:06;24.00;99.90
18729;DHT22;9493;51.884;5.188;2022-08-05T15:54:33;24.10;99.90
18729;DHT22;9493;51.884;5.188;2022-08-05T15:57:00;23.90;99.90
18729;DHT22;9493;51.884;5.188;2022-08-05T15:59:30;23.60;99.90